sensor_id;sensor_type;location;lat;lon;timestamp;pressure;altitude;pressure_sealevel;temperature;humidity
12203;BME280;6164;42.178;24.622;2023-01-31T00:00:42;99197.53;;;2.50;100.00
12203;BME280;6164;42.178;24.622;2023-01-31T00:03:08;99191.78;;;2.56;100.00
12203;BME280;6164;42.178;24.622;2023-01-31T00:05:36;99171.47;;;2.50;100.00
12203;BME280;6164;42.178;24.622;2023-01-31T00:08:03;99175.72;;;2.51;100.00
12203;BME280;6164;42.178;24.622;2023-01-31T00:10:29;99186.00;;;2.52;100.00
12203;BME280;6164;42.178;24.622;2023-01-31T00:12:56;99181.94;;;2.59;100.00
12203;BME280;6164;42.178;24.622;2023-01-31T00:15:22;99186.63;;;2.65;100.00
12203;BME280;6164;42.178;24.622;2023-01-31T00:17:49;99182.16;;;2.77;100.00
12203;BME280;6164;42.178;24.622;2023-01-31T00:20:16;99181.22;;;2.78;98.42
12203;BME280;6164;42.178;24.622;2023-01-31T00:22:44;99185.22;;;2.82;97.56
12203;BME280;6164;42.178;24.622;2023-01-31T00:25:10;99181.13;;;2.89;96.26
12203;BME280;6164;42.178;24.622;2023-01-31T00:27:37;99184.19;;;2.94;95.91
12203;BME280;6164;42.178;24.622;2023-01-31T00:30:04;99188.72;;;3.02;94.29
12203;BME280;6164;42.178;24.622;2023-01-31T00:32:30;99193.41;;;2.98;93.87
12203;BME280;6164;42.178;24.622;2023-01-31T00:34:57;99197.53;;;3.01;93.53
12203;BME280;6164;42.178;24.622;2023-01-31T00:37:23;99190.66;;;3.00;93.15
12203;BME280;6164;42.178;24.622;2023-01-31T00:39:51;99191.22;;;3.03;92.91
12203;BME280;6164;42.178;24.622;2023-01-31T00:42:17;99189.56;;;3.02;92.68
12203;BME280;6164;42.178;24.622;2023-01-31T00:44:44;99197.13;;;3.05;93.42
12203;BME280;6164;42.178;24.622;2023-01-31T00:47:10;99185.19;;;3.03;94.97
12203;BME280;6164;42.178;24.622;2023-01-31T00:49:37;99177.38;;;3.03;96.97
12203;BME280;6164;42.178;24.622;2023-01-31T00:52:03;99178.16;;;3.03;98.09
12203;BME280;6164;42.178;24.622;2023-01-31T00:54:30;99183.78;;;2.99;98.94
12203;BME280;6164;42.178;24.622;2023-01-31T00:56:58;99186.66;;;2.96;98.10
12203;BME280;6164;42.178;24.622;2023-01-31T00:59:24;99188.44;;;2.95;96.98
12203;BME280;6164;42.178;24.622;2023-01-31T01:01:51;99191.47;;;3.00;95.94
12203;BME280;6164;42.178;24.622;2023-01-31T01:04:17;99189.88;;;3.09;94.28
12203;BME280;6164;42.178;24.622;2023-01-31T01:06:44;99185.66;;;3.17;93.34
12203;BME280;6164;42.178;24.622;2023-01-31T01:09:11;99182.63;;;3.22;93.15
12203;BME280;6164;42.178;24.622;2023-01-31T01:11:38;99193.50;;;3.27;92.00
12203;BME280;6164;42.178;24.622;2023-01-31T01:14:06;99191.91;;;3.35;91.35
12203;BME280;6164;42.178;24.622;2023-01-31T01:16:33;99185.84;;;3.35;91.62
12203;BME280;6164;42.178;24.622;2023-01-31T01:19:00;99174.59;;;3.34;92.61
12203;BME280;6164;42.178;24.622;2023-01-31T01:21:27;99166.28;;;3.20;93.82
12203;BME280;6164;42.178;24.622;2023-01-31T01:23:55;99171.13;;;3.24;94.94
12203;BME280;6164;42.178;24.622;2023-01-31T01:26:23;99164.53;;;3.20;96.24
12203;BME280;6164;42.178;24.622;2023-01-31T01:28:50;99166.69;;;3.15;97.19
12203;BME280;6164;42.178;24.622;2023-01-31T01:31:18;99172.47;;;3.19;97.70
12203;BME280;6164;42.178;24.622;2023-01-31T01:33:46;99167.41;;;3.17;98.98
12203;BME280;6164;42.178;24.622;2023-01-31T01:36:15;99163.59;;;3.21;100.00
12203;BME280;6164;42.178;24.622;2023-01-31T01:38:45;99166.44;;;3.18;100.00
12203;BME280;6164;42.178;24.622;2023-01-31T01:41:12;99171.81;;;3.26;100.00
12203;BME280;6164;42.178;24.622;2023-01-31T01:43:40;99173.38;;;3.38;100.00
12203;BME280;6164;42.178;24.622;2023-01-31T01:46:07;99160.88;;;3.51;100.00
12203;BME280;6164;42.178;24.622;2023-01-31T01:48:35;99160.47;;;3.56;100.00
12203;BME280;6164;42.178;24.622;2023-01-31T01:51:02;99150.03;;;3.56;100.00
12203;BME280;6164;42.178;24.622;2023-01-31T01:53:30;99155.81;;;3.59;100.00
12203;BME280;6164;42.178;24.622;2023-01-31T01:56:00;99153.22;;;3.59;100.00
12203;BME280;6164;42.178;24.622;2023-01-31T01:58:28;99157.50;;;3.60;100.00
12203;BME280;6164;42.178;24.622;2023-01-31T02:00:56;99152.69;;;3.65;100.00
12203;BME280;6164;42.178;24.622;2023-01-31T02:03:23;99146.63;;;3.65;100.00
12203;BME280;6164;42.178;24.622;2023-01-31T02:05:51;99136.47;;;3.71;100.00
12203;BME280;6164;42.178;24.622;2023-01-31T02:08:20;99137.69;;;3.67;100.00
12203;BME280;6164;42.178;24.622;2023-01-31T02:10:48;99145.84;;;3.74;100.00
12203;BME280;6164;42.178;24.622;2023-01-31T02:13:15;99134.41;;;3.75;100.00
12203;BME280;6164;42.178;24.622;2023-01-31T02:15:45;99138.28;;;3.80;100.00
12203;BME280;6164;42.178;24.622;2023-01-31T02:18:12;99138.38;;;3.79;100.00
12203;BME280;6164;42.178;24.622;2023-01-31T02:20:52;99140.06;;;3.89;100.00
12203;BME280;6164;42.178;24.622;2023-01-31T02:23:34;99132.06;;;4.00;99.99
12203;BME280;6164;42.178;24.622;2023-01-31T02:29:02;99127.94;;;4.07;98.26
12203;BME280;6164;42.178;24.622;2023-01-31T02:31:47;99128.91;;;4.16;97.91
12203;BME280;6164;42.178;24.622;2023-01-31T02:34:18;99128.63;;;4.19;98.27
12203;BME280;6164;42.178;24.622;2023-01-31T02:36:50;99122.31;;;4.22;98.81
12203;BME280;6164;42.178;24.622;2023-01-31T02:39:24;99123.97;;;4.23;98.67
12203;BME280;6164;42.178;24.622;2023-01-31T02:41:54;99128.91;;;4.26;98.96
12203;BME280;6164;42.178;24.622;2023-01-31T02:44:26;99126.69;;;4.31;98.84
12203;BME280;6164;42.178;24.622;2023-01-31T02:47:13;99132.47;;;4.25;98.19
12203;BME280;6164;42.178;24.622;2023-01-31T02:49:45;99128.22;;;4.24;97.72
12203;BME280;6164;42.178;24.622;2023-01-31T02:52:15;99127.41;;;4.23;98.11
12203;BME280;6164;42.178;24.622;2023-01-31T02:54:42;99125.75;;;4.22;98.67
12203;BME280;6164;42.178;24.622;2023-01-31T02:57:25;99120.91;;;4.27;97.46
12203;BME280;6164;42.178;24.622;2023-01-31T02:59:54;99126.97;;;4.28;97.43
12203;BME280;6164;42.178;24.622;2023-01-31T03:02:21;99122.44;;;4.30;96.08
12203;BME280;6164;42.178;24.622;2023-01-31T03:04:49;99123.41;;;4.38;93.43
12203;BME280;6164;42.178;24.622;2023-01-31T03:07:16;99133.97;;;4.46;91.85
12203;BME280;6164;42.178;24.622;2023-01-31T03:09:48;99138.22;;;4.47;91.09
12203;BME280;6164;42.178;24.622;2023-01-31T03:12:26;99141.53;;;4.49;89.67
12203;BME280;6164;42.178;24.622;2023-01-31T03:14:58;99141.38;;;4.51;88.42
12203;BME280;6164;42.178;24.622;2023-01-31T03:17:29;99159.81;;;4.49;87.48
12203;BME280;6164;42.178;24.622;2023-01-31T03:20:01;99149.09;;;4.43;87.83
12203;BME280;6164;42.178;24.622;2023-01-31T03:22:30;99138.25;;;4.38;88.22
12203;BME280;6164;42.178;24.622;2023-01-31T03:24:58;99150.06;;;4.32;86.70
12203;BME280;6164;42.178;24.622;2023-01-31T03:27:26;99147.31;;;4.24;87.22
12203;BME280;6164;42.178;24.622;2023-01-31T03:29:52;99147.47;;;4.23;86.26
12203;BME280;6164;42.178;24.622;2023-01-31T03:32:23;99132.78;;;4.22;85.83
12203;BME280;6164;42.178;24.622;2023-01-31T03:34:51;99156.81;;;4.16;85.96
12203;BME280;6164;42.178;24.622;2023-01-31T03:37:20;99158.88;;;4.12;86.32
12203;BME280;6164;42.178;24.622;2023-01-31T03:39:52;99157.53;;;4.08;85.58
12203;BME280;6164;42.178;24.622;2023-01-31T03:42:21;99185.28;;;4.19;81.69
12203;BME280;6164;42.178;24.622;2023-01-31T03:44:51;99183.09;;;4.14;81.40
12203;BME280;6164;42.178;24.622;2023-01-31T03:47:24;99181.03;;;4.18;78.58
12203;BME280;6164;42.178;24.622;2023-01-31T03:49:53;99193.53;;;4.14;77.99
12203;BME280;6164;42.178;24.622;2023-01-31T03:52:24;99190.78;;;4.06;78.21
12203;BME280;6164;42.178;24.622;2023-01-31T03:54:52;99209.06;;;4.06;76.84
12203;BME280;6164;42.178;24.622;2023-01-31T03:57:20;99224.31;;;4.11;75.21
12203;BME280;6164;42.178;24.622;2023-01-31T03:59:50;99219.94;;;4.11;74.65
12203;BME280;6164;42.178;24.622;2023-01-31T04:02:19;99227.91;;;4.10;73.92
12203;BME280;6164;42.178;24.622;2023-01-31T04:04:46;99219.09;;;4.01;74.18
12203;BME280;6164;42.178;24.622;2023-01-31T04:07:14;99220.19;;;3.98;74.20
12203;BME280;6164;42.178;24.622;2023-01-31T04:09:43;99203.13;;;3.94;75.10
12203;BME280;6164;42.178;24.622;2023-01-31T04:12:10;99199.56;;;3.95;75.24
12203;BME280;6164;42.178;24.622;2023-01-31T04:14:37;99221.28;;;3.96;74.68
12203;BME280;6164;42.178;24.622;2023-01-31T04:17:04;99223.75;;;3.97;74.29
12203;BME280;6164;42.178;24.622;2023-01-31T04:19:30;99211.25;;;3.91;74.95
12203;BME280;6164;42.178;24.622;2023-01-31T04:21:57;99226.50;;;3.96;74.81
12203;BME280;6164;42.178;24.622;2023-01-31T04:24:23;99219.63;;;3.85;75.91
12203;BME280;6164;42.178;24.622;2023-01-31T04:26:52;99226.63;;;3.85;75.79
12203;BME280;6164;42.178;24.622;2023-01-31T04:29:18;99221.41;;;3.85;76.43
12203;BME280;6164;42.178;24.622;2023-01-31T04:31:45;99226.78;;;3.83;76.31
12203;BME280;6164;42.178;24.622;2023-01-31T04:34:11;99231.56;;;3.78;76.91
12203;BME280;6164;42.178;24.622;2023-01-31T04:36:38;99203.50;;;3.71;78.43
12203;BME280;6164;42.178;24.622;2023-01-31T04:39:04;99193.22;;;3.69;78.88
12203;BME280;6164;42.178;24.622;2023-01-31T04:41:31;99202.41;;;3.64;79.80
12203;BME280;6164;42.178;24.622;2023-01-31T04:43:59;99201.72;;;3.62;80.55
12203;BME280;6164;42.178;24.622;2023-01-31T04:46:25;99219.84;;;3.63;80.01
12203;BME280;6164;42.178;24.622;2023-01-31T04:48:51;99204.47;;;3.60;80.31
12203;BME280;6164;42.178;24.622;2023-01-31T04:51:18;99208.28;;;3.56;80.80
12203;BME280;6164;42.178;24.622;2023-01-31T04:53:44;99210.47;;;3.51;80.90
12203;BME280;6164;42.178;24.622;2023-01-31T04:56:11;99221.03;;;3.50;81.67
12203;BME280;6164;42.178;24.622;2023-01-31T04:58:41;99218.72;;;3.47;81.20
12203;BME280;6164;42.178;24.622;2023-01-31T05:01:09;99223.22;;;3.45;81.48
12203;BME280;6164;42.178;24.622;2023-01-31T05:03:35;99218.00;;;3.45;80.81
12203;BME280;6164;42.178;24.622;2023-01-31T05:06:02;99241.91;;;3.40;81.08
12203;BME280;6164;42.178;24.622;2023-01-31T05:08:28;99217.00;;;3.36;82.14
12203;BME280;6164;42.178;24.622;2023-01-31T05:10:57;99239.56;;;3.37;82.69
12203;BME280;6164;42.178;24.622;2023-01-31T05:13:24;99229.13;;;3.37;82.82
12203;BME280;6164;42.178;24.622;2023-01-31T05:15:51;99247.66;;;3.34;83.64
12203;BME280;6164;42.178;24.622;2023-01-31T05:18:19;99232.94;;;3.33;84.21
12203;BME280;6164;42.178;24.622;2023-01-31T05:20:46;99244.06;;;3.35;84.99
12203;BME280;6164;42.178;24.622;2023-01-31T05:23:14;99246.53;;;3.37;85.50
12203;BME280;6164;42.178;24.622;2023-01-31T05:25:40;99242.88;;;3.39;85.44
12203;BME280;6164;42.178;24.622;2023-01-31T05:28:07;99251.38;;;3.41;85.31
12203;BME280;6164;42.178;24.622;2023-01-31T05:30:34;99271.97;;;3.44;84.76
12203;BME280;6164;42.178;24.622;2023-01-31T05:33:01;99269.50;;;3.43;85.06
12203;BME280;6164;42.178;24.622;2023-01-31T05:35:29;99272.09;;;3.43;85.18
12203;BME280;6164;42.178;24.622;2023-01-31T05:37:55;99288.72;;;3.42;84.90
12203;BME280;6164;42.178;24.622;2023-01-31T05:40:22;99302.59;;;3.42;85.05
12203;BME280;6164;42.178;24.622;2023-01-31T05:42:49;99296.13;;;3.37;84.87
12203;BME280;6164;42.178;24.622;2023-01-31T05:45:18;99306.16;;;3.41;84.57
12203;BME280;6164;42.178;24.622;2023-01-31T05:47:45;99292.44;;;3.39;85.58
12203;BME280;6164;42.178;24.622;2023-01-31T05:50:11;99283.50;;;3.42;85.35
12203;BME280;6164;42.178;24.622;2023-01-31T05:52:39;99296.81;;;3.39;85.99
12203;BME280;6164;42.178;24.622;2023-01-31T05:55:06;99300.50;;;3.36;86.07
12203;BME280;6164;42.178;24.622;2023-01-31T05:57:33;99283.78;;;3.39;86.10
12203;BME280;6164;42.178;24.622;2023-01-31T05:59:59;99286.50;;;3.37;86.41
12203;BME280;6164;42.178;24.622;2023-01-31T06:02:26;99292.53;;;3.38;86.19
12203;BME280;6164;42.178;24.622;2023-01-31T06:04:52;99305.59;;;3.38;86.32
12203;BME280;6164;42.178;24.622;2023-01-31T06:07:19;99289.25;;;3.36;86.50
12203;BME280;6164;42.178;24.622;2023-01-31T06:09:48;99297.22;;;3.34;86.80
12203;BME280;6164;42.178;24.622;2023-01-31T06:12:14;99294.47;;;3.36;86.70
12203;BME280;6164;42.178;24.622;2023-01-31T06:14:41;99284.28;;;3.33;86.87
12203;BME280;6164;42.178;24.622;2023-01-31T06:17:08;99276.97;;;3.27;87.51
12203;BME280;6164;42.178;24.622;2023-01-31T06:19:35;99277.94;;;3.26;88.46
12203;BME280;6164;42.178;24.622;2023-01-31T06:22:02;99278.72;;;3.17;90.31
12203;BME280;6164;42.178;24.622;2023-01-31T06:24:29;99279.69;;;3.16;91.22
12203;BME280;6164;42.178;24.622;2023-01-31T06:26:57;99279.28;;;3.20;91.82
12203;BME280;6164;42.178;24.622;2023-01-31T06:29:24;99281.06;;;3.20;91.88
12203;BME280;6164;42.178;24.622;2023-01-31T06:31:50;99283.13;;;3.16;93.16
12203;BME280;6164;42.178;24.622;2023-01-31T06:34:17;99280.63;;;3.15;94.65
12203;BME280;6164;42.178;24.622;2023-01-31T06:36:44;99289.44;;;3.23;95.92
12203;BME280;6164;42.178;24.622;2023-01-31T06:39:11;99289.88;;;3.28;96.67
12203;BME280;6164;42.178;24.622;2023-01-31T06:41:38;99292.81;;;3.35;96.56
12203;BME280;6164;42.178;24.622;2023-01-31T06:44:06;99284.34;;;3.42;95.25
12203;BME280;6164;42.178;24.622;2023-01-31T06:46:32;99287.38;;;3.47;95.21
12203;BME280;6164;42.178;24.622;2023-01-31T06:48:59;99284.09;;;3.55;95.73
12203;BME280;6164;42.178;24.622;2023-01-31T06:51:29;99298.84;;;3.65;94.92
12203;BME280;6164;42.178;24.622;2023-01-31T06:53:55;99306.88;;;3.83;93.52
12203;BME280;6164;42.178;24.622;2023-01-31T06:56:22;99322.06;;;3.98;91.66
12203;BME280;6164;42.178;24.622;2023-01-31T06:58:49;99315.19;;;4.07;91.41
12203;BME280;6164;42.178;24.622;2023-01-31T07:01:16;99304.06;;;4.15;90.53
12203;BME280;6164;42.178;24.622;2023-01-31T07:03:43;99316.44;;;4.22;89.55
12203;BME280;6164;42.178;24.622;2023-01-31T07:06:09;99310.28;;;4.23;88.73
12203;BME280;6164;42.178;24.622;2023-01-31T07:08:36;99328.84;;;4.30;87.89
12203;BME280;6164;42.178;24.622;2023-01-31T07:11:03;99328.84;;;4.30;89.19
12203;BME280;6164;42.178;24.622;2023-01-31T07:13:30;99326.91;;;4.32;89.86
12203;BME280;6164;42.178;24.622;2023-01-31T07:15:56;99324.56;;;4.29;90.46
12203;BME280;6164;42.178;24.622;2023-01-31T07:18:24;99344.41;;;4.31;90.80
12203;BME280;6164;42.178;24.622;2023-01-31T07:20:50;99336.41;;;4.33;90.91
12203;BME280;6164;42.178;24.622;2023-01-31T07:23:17;99348.38;;;4.35;90.16
12203;BME280;6164;42.178;24.622;2023-01-31T07:25:43;99331.47;;;4.39;90.15
12203;BME280;6164;42.178;24.622;2023-01-31T07:28:10;99351.53;;;4.39;90.45
12203;BME280;6164;42.178;24.622;2023-01-31T07:30:37;99347.72;;;4.43;90.18
12203;BME280;6164;42.178;24.622;2023-01-31T07:33:04;99351.56;;;4.48;88.91
12203;BME280;6164;42.178;24.622;2023-01-31T07:35:31;99344.97;;;4.54;89.32
12203;BME280;6164;42.178;24.622;2023-01-31T07:37:58;99344.56;;;4.58;87.73
12203;BME280;6164;42.178;24.622;2023-01-31T07:40:24;99348.56;;;4.62;87.59
12203;BME280;6164;42.178;24.622;2023-01-31T07:42:51;99354.50;;;4.64;87.64
12203;BME280;6164;42.178;24.622;2023-01-31T07:45:22;99370.59;;;4.69;86.29
12203;BME280;6164;42.178;24.622;2023-01-31T07:47:49;99357.38;;;4.71;86.41
12203;BME280;6164;42.178;24.622;2023-01-31T07:50:15;99363.56;;;4.70;86.81
12203;BME280;6164;42.178;24.622;2023-01-31T07:52:43;99366.72;;;4.73;85.91
12203;BME280;6164;42.178;24.622;2023-01-31T07:55:10;99365.88;;;4.73;85.66
12203;BME280;6164;42.178;24.622;2023-01-31T07:57:36;99371.94;;;4.73;85.71
12203;BME280;6164;42.178;24.622;2023-01-31T08:00:03;99369.34;;;4.73;85.99
12203;BME280;6164;42.178;24.622;2023-01-31T08:02:53;99369.47;;;4.72;85.80
12203;BME280;6164;42.178;24.622;2023-01-31T08:05:37;99364.53;;;4.69;85.77
12203;BME280;6164;42.178;24.622;2023-01-31T08:08:04;99361.78;;;4.70;86.19
12203;BME280;6164;42.178;24.622;2023-01-31T08:10:35;99358.19;;;4.71;85.29
12203;BME280;6164;42.178;24.622;2023-01-31T08:13:01;99351.16;;;4.72;85.92
12203;BME280;6164;42.178;24.622;2023-01-31T08:15:28;99366.72;;;4.73;86.27
12203;BME280;6164;42.178;24.622;2023-01-31T08:17:55;99362.19;;;4.75;86.09
12203;BME280;6164;42.178;24.622;2023-01-31T08:20:21;99370.88;;;4.76;85.93
12203;BME280;6164;42.178;24.622;2023-01-31T08:22:48;99387.91;;;4.80;85.59
12203;BME280;6164;42.178;24.622;2023-01-31T08:25:15;99382.28;;;4.84;85.55
12203;BME280;6164;42.178;24.622;2023-01-31T08:27:42;99370.72;;;4.87;85.59
12203;BME280;6164;42.178;24.622;2023-01-31T08:30:09;99367.53;;;4.93;85.76
12203;BME280;6164;42.178;24.622;2023-01-31T08:32:36;99376.78;;;4.97;84.90
12203;BME280;6164;42.178;24.622;2023-01-31T08:35:02;99366.59;;;5.03;86.38
12203;BME280;6164;42.178;24.622;2023-01-31T08:37:29;99377.59;;;5.07;85.29
12203;BME280;6164;42.178;24.622;2023-01-31T08:39:56;99391.78;;;5.14;83.86
12203;BME280;6164;42.178;24.622;2023-01-31T08:42:24;99383.53;;;5.18;84.15
12203;BME280;6164;42.178;24.622;2023-01-31T08:44:51;99394.13;;;5.26;83.72
12203;BME280;6164;42.178;24.622;2023-01-31T08:47:17;99389.56;;;5.28;82.69
12203;BME280;6164;42.178;24.622;2023-01-31T08:49:44;99393.94;;;5.37;83.31
12203;BME280;6164;42.178;24.622;2023-01-31T08:52:10;99394.78;;;5.38;81.80
12203;BME280;6164;42.178;24.622;2023-01-31T08:54:37;99407.16;;;5.46;81.86
12203;BME280;6164;42.178;24.622;2023-01-31T08:57:03;99403.84;;;5.53;82.38
12203;BME280;6164;42.178;24.622;2023-01-31T08:59:31;99403.41;;;5.67;82.35
12203;BME280;6164;42.178;24.622;2023-01-31T09:01:57;99406.31;;;5.64;80.26
12203;BME280;6164;42.178;24.622;2023-01-31T09:04:24;99407.94;;;5.75;80.89
12203;BME280;6164;42.178;24.622;2023-01-31T09:06:50;99412.88;;;5.87;80.43
12203;BME280;6164;42.178;24.622;2023-01-31T09:09:18;99411.25;;;6.13;79.47
12203;BME280;6164;42.178;24.622;2023-01-31T09:11:45;99424.31;;;6.32;78.06
12203;BME280;6164;42.178;24.622;2023-01-31T09:14:11;99432.72;;;6.26;77.04
12203;BME280;6164;42.178;24.622;2023-01-31T09:16:39;99415.84;;;6.38;77.19
12203;BME280;6164;42.178;24.622;2023-01-31T09:19:06;99435.91;;;6.47;76.18
12203;BME280;6164;42.178;24.622;2023-01-31T09:21:32;99450.47;;;6.42;74.85
12203;BME280;6164;42.178;24.622;2023-01-31T09:23:59;99440.41;;;6.37;74.53
12203;BME280;6164;42.178;24.622;2023-01-31T09:26:27;99426.91;;;6.32;74.54
12203;BME280;6164;42.178;24.622;2023-01-31T09:28:54;99439.78;;;6.26;73.93
12203;BME280;6164;42.178;24.622;2023-01-31T09:31:22;99418.38;;;6.30;74.95
12203;BME280;6164;42.178;24.622;2023-01-31T09:33:50;99399.22;;;6.47;74.30
12203;BME280;6164;42.178;24.622;2023-01-31T09:36:17;99392.47;;;6.72;75.75
12203;BME280;6164;42.178;24.622;2023-01-31T09:38:44;99394.69;;;7.02;75.31
12203;BME280;6164;42.178;24.622;2023-01-31T09:41:13;99408.88;;;7.09;73.09
12203;BME280;6164;42.178;24.622;2023-01-31T09:43:42;99405.09;;;7.12;71.23
12203;BME280;6164;42.178;24.622;2023-01-31T09:46:10;99434.56;;;7.23;71.44
12203;BME280;6164;42.178;24.622;2023-01-31T09:48:38;99405.28;;;7.53;71.91
12203;BME280;6164;42.178;24.622;2023-01-31T09:51:09;99461.59;;;7.33;67.67
12203;BME280;6164;42.178;24.622;2023-01-31T09:53:38;99462.47;;;7.42;68.30
12203;BME280;6164;42.178;24.622;2023-01-31T09:56:12;99430.50;;;7.46;68.67
12203;BME280;6164;42.178;24.622;2023-01-31T09:58:41;99445.16;;;7.49;68.32
12203;BME280;6164;42.178;24.622;2023-01-31T10:01:13;99456.53;;;7.40;66.56
12203;BME280;6164;42.178;24.622;2023-01-31T10:06:29;99414.88;;;7.62;67.16
12203;BME280;6164;42.178;24.622;2023-01-31T10:09:00;99425.19;;;7.56;66.22
12203;BME280;6164;42.178;24.622;2023-01-31T10:11:31;99431.53;;;7.71;66.76
12203;BME280;6164;42.178;24.622;2023-01-31T10:14:00;99431.97;;;7.66;66.06
12203;BME280;6164;42.178;24.622;2023-01-31T10:16:32;99440.78;;;7.57;65.44
12203;BME280;6164;42.178;24.622;2023-01-31T10:19:00;99435.31;;;7.51;65.30
12203;BME280;6164;42.178;24.622;2023-01-31T10:21:31;99413.94;;;7.71;65.75
12203;BME280;6164;42.178;24.622;2023-01-31T10:24:01;99430.53;;;7.72;65.41
12203;BME280;6164;42.178;24.622;2023-01-31T10:26:30;99424.13;;;7.74;65.03
12203;BME280;6164;42.178;24.622;2023-01-31T10:28:58;99410.97;;;7.92;65.94
12203;BME280;6164;42.178;24.622;2023-01-31T10:31:28;99427.06;;;7.89;64.22
12203;BME280;6164;42.178;24.622;2023-01-31T10:33:57;99418.59;;;7.77;64.33
12203;BME280;6164;42.178;24.622;2023-01-31T10:36:27;99402.56;;;7.88;65.11
12203;BME280;6164;42.178;24.622;2023-01-31T10:38:57;99407.06;;;8.04;65.27
12203;BME280;6164;42.178;24.622;2023-01-31T10:41:28;99404.34;;;7.88;64.99
12203;BME280;6164;42.178;24.622;2023-01-31T10:43:58;99408.91;;;7.78;65.13
12203;BME280;6164;42.178;24.622;2023-01-31T10:46:25;99406.91;;;8.05;65.09
12203;BME280;6164;42.178;24.622;2023-01-31T10:48:52;99414.06;;;8.21;64.76
12203;BME280;6164;42.178;24.622;2023-01-31T10:51:22;99428.75;;;8.24;63.46
12203;BME280;6164;42.178;24.622;2023-01-31T10:54:01;99412.88;;;8.41;64.15
12203;BME280;6164;42.178;24.622;2023-01-31T10:56:30;99427.78;;;8.33;63.74
12203;BME280;6164;42.178;24.622;2023-01-31T10:58:59;99432.94;;;7.91;63.13
12203;BME280;6164;42.178;24.622;2023-01-31T11:01:26;99416.06;;;7.93;64.36
12203;BME280;6164;42.178;24.622;2023-01-31T11:03:53;99426.94;;;7.73;64.10
12203;BME280;6164;42.178;24.622;2023-01-31T11:06:20;99389.41;;;7.63;65.05
12203;BME280;6164;42.178;24.622;2023-01-31T11:08:48;99387.22;;;7.50;64.05
12203;BME280;6164;42.178;24.622;2023-01-31T11:11:18;99378.50;;;7.50;65.65
12203;BME280;6164;42.178;24.622;2023-01-31T11:13:54;99361.50;;;7.62;65.92
12203;BME280;6164;42.178;24.622;2023-01-31T11:16:21;99360.25;;;7.66;65.76
12203;BME280;6164;42.178;24.622;2023-01-31T11:18:48;99338.19;;;7.92;67.05
12203;BME280;6164;42.178;24.622;2023-01-31T11:21:20;99363.34;;;7.95;64.99
12203;BME280;6164;42.178;24.622;2023-01-31T11:23:48;99358.78;;;8.05;65.77
12203;BME280;6164;42.178;24.622;2023-01-31T11:26:25;99374.00;;;7.93;65.05
12203;BME280;6164;42.178;24.622;2023-01-31T11:28:52;99361.19;;;7.90;65.96
12203;BME280;6164;42.178;24.622;2023-01-31T11:31:20;99367.19;;;8.09;65.29
12203;BME280;6164;42.178;24.622;2023-01-31T11:33:55;99357.03;;;8.14;65.94
12203;BME280;6164;42.178;24.622;2023-01-31T11:36:21;99326.59;;;8.11;66.52
12203;BME280;6164;42.178;24.622;2023-01-31T11:38:48;99323.66;;;8.14;67.17
12203;BME280;6164;42.178;24.622;2023-01-31T11:41:30;99343.44;;;7.92;65.96
12203;BME280;6164;42.178;24.622;2023-01-31T11:44:13;99329.81;;;7.89;66.98
12203;BME280;6164;42.178;24.622;2023-01-31T11:46:44;99338.44;;;7.73;65.94
12203;BME280;6164;42.178;24.622;2023-01-31T11:49:12;99314.09;;;7.71;66.84
12203;BME280;6164;42.178;24.622;2023-01-31T11:51:39;99343.28;;;7.60;65.20
12203;BME280;6164;42.178;24.622;2023-01-31T11:54:06;99318.31;;;7.64;66.97
12203;BME280;6164;42.178;24.622;2023-01-31T11:56:37;99310.66;;;7.71;66.66
12203;BME280;6164;42.178;24.622;2023-01-31T11:59:03;99323.47;;;7.66;65.87
12203;BME280;6164;42.178;24.622;2023-01-31T12:01:33;99325.22;;;7.57;65.49
12203;BME280;6164;42.178;24.622;2023-01-31T12:04:02;99321.53;;;7.50;65.39
12203;BME280;6164;42.178;24.622;2023-01-31T12:06:30;99348.38;;;7.36;64.53
12203;BME280;6164;42.178;24.622;2023-01-31T12:08:58;99351.09;;;7.27;65.03
12203;BME280;6164;42.178;24.622;2023-01-31T12:11:27;99329.44;;;7.25;64.63
12203;BME280;6164;42.178;24.622;2023-01-31T12:14:00;99346.16;;;7.24;65.04
12203;BME280;6164;42.178;24.622;2023-01-31T12:16:28;99345.47;;;7.22;65.00
12203;BME280;6164;42.178;24.622;2023-01-31T12:21:43;99320.22;;;7.21;65.82
12203;BME280;6164;42.178;24.622;2023-01-31T12:24:15;99322.84;;;7.21;65.97
12203;BME280;6164;42.178;24.622;2023-01-31T12:26:44;99323.66;;;7.21;66.62
12203;BME280;6164;42.178;24.622;2023-01-31T12:29:37;99342.03;;;7.21;65.40
12203;BME280;6164;42.178;24.622;2023-01-31T12:32:08;99337.59;;;7.22;65.23
12203;BME280;6164;42.178;24.622;2023-01-31T12:34:57;99332.50;;;7.20;65.76
12203;BME280;6164;42.178;24.622;2023-01-31T12:37:28;99318.25;;;7.23;66.58
12203;BME280;6164;42.178;24.622;2023-01-31T12:40:07;99331.34;;;7.15;66.31
12203;BME280;6164;42.178;24.622;2023-01-31T12:42:48;99309.81;;;7.11;67.59
12203;BME280;6164;42.178;24.622;2023-01-31T12:45:23;99321.47;;;7.17;66.22
12203;BME280;6164;42.178;24.622;2023-01-31T12:48:08;99297.69;;;7.18;67.20
12203;BME280;6164;42.178;24.622;2023-01-31T12:50:39;99301.09;;;7.11;68.18
12203;BME280;6164;42.178;24.622;2023-01-31T12:53:15;99292.53;;;7.09;69.85
12203;BME280;6164;42.178;24.622;2023-01-31T12:55:47;99281.31;;;6.99;69.53
12203;BME280;6164;42.178;24.622;2023-01-31T12:58:20;99268.34;;;6.97;70.21
12203;BME280;6164;42.178;24.622;2023-01-31T13:00:51;99267.03;;;6.93;71.26
12203;BME280;6164;42.178;24.622;2023-01-31T13:03:24;99272.38;;;7.09;70.88
12203;BME280;6164;42.178;24.622;2023-01-31T13:05:55;99287.34;;;7.17;68.92
12203;BME280;6164;42.178;24.622;2023-01-31T13:08:23;99311.06;;;7.25;68.56
12203;BME280;6164;42.178;24.622;2023-01-31T13:10:52;99308.31;;;7.34;68.47
12203;BME280;6164;42.178;24.622;2023-01-31T13:13:23;99332.41;;;7.30;66.68
12203;BME280;6164;42.178;24.622;2023-01-31T13:15:53;99336.22;;;7.35;68.61
12203;BME280;6164;42.178;24.622;2023-01-31T13:18:20;99315.84;;;7.29;68.57
12203;BME280;6164;42.178;24.622;2023-01-31T13:20:49;99337.22;;;7.34;67.29
12203;BME280;6164;42.178;24.622;2023-01-31T13:23:18;99333.38;;;7.29;67.47
12203;BME280;6164;42.178;24.622;2023-01-31T13:25:47;99313.88;;;7.31;68.23